sensor_id;sensor_type;location;lat;lon;timestamp;pressure;altitude;pressure_sealevel;temperature;humidity
29909;BME280;36247;51.952;6.146;2022-11-15T00:01:41;100764.38;;;6.93;100.00
29909;BME280;36247;51.952;6.146;2022-11-15T00:04:25;100768.91;;;6.98;100.00
29909;BME280;36247;51.952;6.146;2022-11-15T00:07:09;100761.09;;;7.01;100.00
29909;BME280;36247;51.952;6.146;2022-11-15T00:09:53;100761.97;;;7.00;100.00
29909;BME280;36247;51.952;6.146;2022-11-15T00:12:37;100759.44;;;7.05;100.00
29909;BME280;36247;51.952;6.146;2022-11-15T00:15:22;100753.31;;;7.06;100.00
29909;BME280;36247;51.952;6.146;2022-11-15T00:18:12;100754.31;;;7.10;100.00
29909;BME280;36247;51.952;6.146;2022-11-15T00:21:06;100742.88;;;7.09;100.00
29909;BME280;36247;51.952;6.146;2022-11-15T00:23:50;100747.31;;;7.12;100.00
29909;BME280;36247;51.952;6.146;2022-11-15T00:26:34;100756.97;;;7.11;100.00
29909;BME280;36247;51.952;6.146;2022-11-15T00:29:18;100748.31;;;7.15;100.00
29909;BME280;36247;51.952;6.146;2022-11-15T00:32:02;100742.16;;;7.16;100.00
29909;BME280;36247;51.952;6.146;2022-11-15T00:34:46;100729.91;;;7.17;100.00
29909;BME280;36247;51.952;6.146;2022-11-15T00:37:30;100737.13;;;7.24;100.00
29909;BME280;36247;51.952;6.146;2022-11-15T00:40:15;100718.69;;;7.24;100.00
29909;BME280;36247;51.952;6.146;2022-11-15T00:42:59;100732.03;;;7.32;100.00
29909;BME280;36247;51.952;6.146;2022-11-15T00:45:43;100725.84;;;7.31;100.00
29909;BME280;36247;51.952;6.146;2022-11-15T00:48:27;100729.47;;;7.35;100.00
29909;BME280;36247;51.952;6.146;2022-11-15T00:51:11;100724.28;;;7.38;100.00
29909;BME280;36247;51.952;6.146;2022-11-15T00:53:55;100737.50;;;7.39;100.00
29909;BME280;36247;51.952;6.146;2022-11-15T00:56:39;100722.50;;;7.37;100.00
29909;BME280;36247;51.952;6.146;2022-11-15T00:59:23;100723.47;;;7.40;100.00
29909;BME280;36247;51.952;6.146;2022-11-15T01:02:07;100720.81;;;7.39;100.00
29909;BME280;36247;51.952;6.146;2022-11-15T01:04:51;100717.28;;;7.40;100.00
29909;BME280;36247;51.952;6.146;2022-11-15T01:07:36;100715.59;;;7.42;100.00
29909;BME280;36247;51.952;6.146;2022-11-15T01:10:20;100711.25;;;7.44;100.00
29909;BME280;36247;51.952;6.146;2022-11-15T01:13:04;100705.97;;;7.44;100.00
29909;BME280;36247;51.952;6.146;2022-11-15T01:15:48;100706.00;;;7.46;100.00
29909;BME280;36247;51.952;6.146;2022-11-15T01:18:32;100699.06;;;7.49;100.00
29909;BME280;36247;51.952;6.146;2022-11-15T01:21:18;100705.28;;;7.51;100.00
29909;BME280;36247;51.952;6.146;2022-11-15T01:24:03;100696.59;;;7.55;100.00
29909;BME280;36247;51.952;6.146;2022-11-15T01:26:47;100700.13;;;7.56;100.00
29909;BME280;36247;51.952;6.146;2022-11-15T01:29:32;100696.66;;;7.58;100.00
29909;BME280;36247;51.952;6.146;2022-11-15T01:32:16;100690.56;;;7.61;100.00
29909;BME280;36247;51.952;6.146;2022-11-15T01:35:00;100686.34;;;7.68;100.00
29909;BME280;36247;51.952;6.146;2022-11-15T01:37:44;100687.22;;;7.68;100.00
29909;BME280;36247;51.952;6.146;2022-11-15T01:40:28;100680.28;;;7.72;100.00
29909;BME280;36247;51.952;6.146;2022-11-15T01:43:39;100679.47;;;7.76;100.00
29909;BME280;36247;51.952;6.146;2022-11-15T01:46:33;100671.66;;;7.81;100.00
29909;BME280;36247;51.952;6.146;2022-11-15T01:49:20;100671.69;;;7.82;100.00
29909;BME280;36247;51.952;6.146;2022-11-15T01:52:10;100674.44;;;7.85;100.00
29909;BME280;36247;51.952;6.146;2022-11-15T01:55:22;100665.69;;;7.89;100.00
29909;BME280;36247;51.952;6.146;2022-11-15T01:58:07;100672.84;;;7.93;100.00
29909;BME280;36247;51.952;6.146;2022-11-15T02:00:51;100665.72;;;7.91;100.00
29909;BME280;36247;51.952;6.146;2022-11-15T02:04:12;100666.75;;;7.96;100.00
29909;BME280;36247;51.952;6.146;2022-11-15T02:06:58;100662.34;;;7.97;100.00
29909;BME280;36247;51.952;6.146;2022-11-15T02:09:44;100667.75;;;8.03;100.00
29909;BME280;36247;51.952;6.146;2022-11-15T02:12:28;100667.75;;;8.03;100.00
29909;BME280;36247;51.952;6.146;2022-11-15T02:15:12;100664.34;;;8.08;100.00
29909;BME280;36247;51.952;6.146;2022-11-15T02:18:16;100660.84;;;8.08;100.00
29909;BME280;36247;51.952;6.146;2022-11-15T02:31:12;100654.06;;;8.22;100.00
29909;BME280;36247;51.952;6.146;2022-11-15T02:37:17;100643.72;;;8.32;100.00
29909;BME280;36247;51.952;6.146;2022-11-15T02:40:30;100639.38;;;8.35;100.00
29909;BME280;36247;51.952;6.146;2022-11-15T02:43:25;100641.25;;;8.39;100.00
29909;BME280;36247;51.952;6.146;2022-11-15T02:49:46;100635.03;;;8.39;100.00
29909;BME280;36247;51.952;6.146;2022-11-15T02:52:30;100638.63;;;8.41;100.00
29909;BME280;36247;51.952;6.146;2022-11-15T03:01:41;100624.75;;;8.50;100.00
29909;BME280;36247;51.952;6.146;2022-11-15T03:04:39;100618.78;;;8.60;100.00
29909;BME280;36247;51.952;6.146;2022-11-15T03:10:32;100611.91;;;8.70;100.00
29909;BME280;36247;51.952;6.146;2022-11-15T03:13:26;100614.63;;;8.74;100.00
29909;BME280;36247;51.952;6.146;2022-11-15T03:16:22;100607.59;;;8.73;100.00
29909;BME280;36247;51.952;6.146;2022-11-15T03:19:12;100602.44;;;8.81;100.00
29909;BME280;36247;51.952;6.146;2022-11-15T03:21:59;100601.50;;;8.80;100.00
29909;BME280;36247;51.952;6.146;2022-11-15T03:24:47;100603.28;;;8.80;100.00
29909;BME280;36247;51.952;6.146;2022-11-15T03:27:38;100600.69;;;8.83;100.00
29909;BME280;36247;51.952;6.146;2022-11-15T03:30:24;100604.38;;;8.91;100.00
29909;BME280;36247;51.952;6.146;2022-11-15T03:33:08;100607.03;;;8.93;100.00
29909;BME280;36247;51.952;6.146;2022-11-15T03:35:53;100597.31;;;8.92;100.00
29909;BME280;36247;51.952;6.146;2022-11-15T03:38:38;100594.69;;;8.93;100.00
29909;BME280;36247;51.952;6.146;2022-11-15T03:41:28;100590.31;;;8.95;100.00
29909;BME280;36247;51.952;6.146;2022-11-15T03:44:36;100596.59;;;9.00;100.00
29909;BME280;36247;51.952;6.146;2022-11-15T03:47:45;100600.97;;;9.00;100.00
29909;BME280;36247;51.952;6.146;2022-11-15T03:50:33;100603.66;;;9.03;100.00
29909;BME280;36247;51.952;6.146;2022-11-15T03:53:18;100604.59;;;9.05;100.00
29909;BME280;36247;51.952;6.146;2022-11-15T03:56:03;100601.09;;;9.06;100.00
29909;BME280;36247;51.952;6.146;2022-11-15T03:58:47;100609.09;;;9.11;100.00
29909;BME280;36247;51.952;6.146;2022-11-15T04:01:31;100607.34;;;9.13;100.00
29909;BME280;36247;51.952;6.146;2022-11-15T04:04:15;100607.38;;;9.16;100.00
29909;BME280;36247;51.952;6.146;2022-11-15T04:06:59;100613.63;;;9.20;100.00
29909;BME280;36247;51.952;6.146;2022-11-15T04:09:43;100613.66;;;9.21;100.00
29909;BME280;36247;51.952;6.146;2022-11-15T04:12:46;100610.06;;;9.19;100.00
29909;BME280;36247;51.952;6.146;2022-11-15T04:15:31;100619.84;;;9.23;100.00
29909;BME280;36247;51.952;6.146;2022-11-15T04:18:16;100617.22;;;9.25;100.00
29909;BME280;36247;51.952;6.146;2022-11-15T04:21:00;100612.84;;;9.28;100.00
29909;BME280;36247;51.952;6.146;2022-11-15T04:24:03;100610.25;;;9.31;100.00
29909;BME280;36247;51.952;6.146;2022-11-15T04:26:56;100612.88;;;9.30;100.00
29909;BME280;36247;51.952;6.146;2022-11-15T04:29:40;100609.38;;;9.31;100.00
29909;BME280;36247;51.952;6.146;2022-11-15T04:32:24;100612.13;;;9.39;100.00
29909;BME280;36247;51.952;6.146;2022-11-15T04:35:08;100611.28;;;9.40;100.00
29909;BME280;36247;51.952;6.146;2022-11-15T04:37:52;100610.41;;;9.41;100.00
29909;BME280;36247;51.952;6.146;2022-11-15T04:40:37;100598.03;;;9.38;100.00
29909;BME280;36247;51.952;6.146;2022-11-15T04:43:22;100601.59;;;9.42;100.00
29909;BME280;36247;51.952;6.146;2022-11-15T04:46:06;100604.22;;;9.40;100.00
29909;BME280;36247;51.952;6.146;2022-11-15T04:48:51;100601.53;;;9.37;100.00
29909;BME280;36247;51.952;6.146;2022-11-15T04:51:36;100613.16;;;9.47;100.00
29909;BME280;36247;51.952;6.146;2022-11-15T04:54:20;100608.78;;;9.50;100.00
29909;BME280;36247;51.952;6.146;2022-11-15T04:57:04;100595.59;;;9.53;100.00
29909;BME280;36247;51.952;6.146;2022-11-15T04:59:48;100605.28;;;9.51;100.00
29909;BME280;36247;51.952;6.146;2022-11-15T05:02:32;100606.25;;;9.58;100.00
29909;BME280;36247;51.952;6.146;2022-11-15T05:05:35;100601.94;;;9.63;100.00
29909;BME280;36247;51.952;6.146;2022-11-15T05:08:20;100601.94;;;9.63;100.00
29909;BME280;36247;51.952;6.146;2022-11-15T05:11:03;100596.59;;;9.60;100.00
29909;BME280;36247;51.952;6.146;2022-11-15T05:13:48;100592.16;;;9.59;100.00
29909;BME280;36247;51.952;6.146;2022-11-15T05:16:32;100594.97;;;9.71;100.00
29909;BME280;36247;51.952;6.146;2022-11-15T05:19:16;100600.19;;;9.65;100.00
29909;BME280;36247;51.952;6.146;2022-11-15T05:22:00;100596.69;;;9.66;100.00
29909;BME280;36247;51.952;6.146;2022-11-15T05:24:44;100601.16;;;9.70;100.00
29909;BME280;36247;51.952;6.146;2022-11-15T05:27:28;100604.66;;;9.69;100.00
29909;BME280;36247;51.952;6.146;2022-11-15T05:30:12;100596.72;;;9.71;100.00
29909;BME280;36247;51.952;6.146;2022-11-15T05:32:56;100594.94;;;9.70;100.00
29909;BME280;36247;51.952;6.146;2022-11-15T05:35:42;100598.47;;;9.67;100.00
29909;BME280;36247;51.952;6.146;2022-11-15T05:38:29;100596.66;;;9.65;100.00
29909;BME280;36247;51.952;6.146;2022-11-15T05:41:15;100583.41;;;9.63;100.00
29909;BME280;36247;51.952;6.146;2022-11-15T05:44:01;100598.31;;;9.58;100.00
29909;BME280;36247;51.952;6.146;2022-11-15T05:46:48;100599.28;;;9.63;100.00
29909;BME280;36247;51.952;6.146;2022-11-15T05:49:35;100594.78;;;9.56;100.00
29909;BME280;36247;51.952;6.146;2022-11-15T05:52:24;100599.22;;;9.59;100.00
29909;BME280;36247;51.952;6.146;2022-11-15T05:55:09;100594.03;;;9.66;100.00
29909;BME280;36247;51.952;6.146;2022-11-15T05:57:53;100593.00;;;9.57;100.00
29909;BME280;36247;51.952;6.146;2022-11-15T06:00:37;100599.25;;;9.60;100.00
29909;BME280;36247;51.952;6.146;2022-11-15T06:03:22;100603.63;;;9.61;100.00
29909;BME280;36247;51.952;6.146;2022-11-15T06:06:06;100607.25;;;9.66;100.00
29909;BME280;36247;51.952;6.146;2022-11-15T06:08:50;100609.91;;;9.68;100.00
29909;BME280;36247;51.952;6.146;2022-11-15T06:11:34;100601.19;;;9.74;100.00
29909;BME280;36247;51.952;6.146;2022-11-15T06:14:18;100598.56;;;9.77;100.00
29909;BME280;36247;51.952;6.146;2022-11-15T06:17:02;100601.13;;;9.69;100.00
29909;BME280;36247;51.952;6.146;2022-11-15T06:19:46;100605.56;;;9.73;100.00
29909;BME280;36247;51.952;6.146;2022-11-15T06:22:30;100605.59;;;9.75;100.00
29909;BME280;36247;51.952;6.146;2022-11-15T06:25:14;100609.13;;;9.74;100.00
29909;BME280;36247;51.952;6.146;2022-11-15T06:27:59;100607.34;;;9.74;100.00
29909;BME280;36247;51.952;6.146;2022-11-15T06:30:43;100607.25;;;9.66;100.00
29909;BME280;36247;51.952;6.146;2022-11-15T06:33:27;100613.47;;;9.70;100.00
29909;BME280;36247;51.952;6.146;2022-11-15T06:36:12;100619.69;;;9.74;100.00
29909;BME280;36247;51.952;6.146;2022-11-15T06:39:00;100613.47;;;9.71;100.00
29909;BME280;36247;51.952;6.146;2022-11-15T06:41:44;100619.66;;;9.70;100.00
29909;BME280;36247;51.952;6.146;2022-11-15T06:44:29;100611.88;;;9.81;100.00
29909;BME280;36247;51.952;6.146;2022-11-15T06:47:13;100614.56;;;9.84;100.00
29909;BME280;36247;51.952;6.146;2022-11-15T06:49:57;100625.00;;;9.75;100.00
29909;BME280;36247;51.952;6.146;2022-11-15T06:52:41;100625.97;;;9.82;100.00
29909;BME280;36247;51.952;6.146;2022-11-15T06:55:25;100623.41;;;9.88;100.00
29909;BME280;36247;51.952;6.146;2022-11-15T06:58:09;100634.91;;;9.88;100.00
29909;BME280;36247;51.952;6.146;2022-11-15T07:00:53;100630.47;;;9.89;100.00
29909;BME280;36247;51.952;6.146;2022-11-15T07:03:39;100628.69;;;9.88;100.00
29909;BME280;36247;51.952;6.146;2022-11-15T07:06:23;100627.84;;;9.89;100.00
29909;BME280;36247;51.952;6.146;2022-11-15T07:09:07;100615.34;;;9.79;100.00
29909;BME280;36247;51.952;6.146;2022-11-15T07:11:51;100623.25;;;9.76;100.00
29909;BME280;36247;51.952;6.146;2022-11-15T07:14:35;100625.00;;;9.74;100.00
29909;BME280;36247;51.952;6.146;2022-11-15T07:17:19;100620.59;;;9.76;100.00
29909;BME280;36247;51.952;6.146;2022-11-15T07:20:03;100629.38;;;9.73;100.00
29909;BME280;36247;51.952;6.146;2022-11-15T07:22:48;100632.13;;;9.79;100.00
29909;BME280;36247;51.952;6.146;2022-11-15T07:25:32;100640.16;;;9.85;100.00
29909;BME280;36247;51.952;6.146;2022-11-15T07:28:16;100628.63;;;9.82;100.00
29909;BME280;36247;51.952;6.146;2022-11-15T07:31:05;100639.34;;;9.93;100.00
29909;BME280;36247;51.952;6.146;2022-11-15T07:33:49;100643.78;;;9.94;100.00
29909;BME280;36247;51.952;6.146;2022-11-15T07:36:33;100649.97;;;9.94;100.00
29909;BME280;36247;51.952;6.146;2022-11-15T07:39:17;100656.13;;;9.93;100.00
29909;BME280;36247;51.952;6.146;2022-11-15T07:42:01;100657.03;;;9.97;100.00
29909;BME280;36247;51.952;6.146;2022-11-15T07:45:05;100664.06;;;9.93;100.00
29909;BME280;36247;51.952;6.146;2022-11-15T07:47:49;100658.78;;;9.93;100.00
29909;BME280;36247;51.952;6.146;2022-11-15T07:50:33;100651.69;;;9.92;100.00
29909;BME280;36247;51.952;6.146;2022-11-15T07:53:17;100654.44;;;10.00;100.00
29909;BME280;36247;51.952;6.146;2022-11-15T07:56:01;100657.13;;;10.04;100.00
29909;BME280;36247;51.952;6.146;2022-11-15T07:58:46;100660.69;;;10.05;100.00
29909;BME280;36247;51.952;6.146;2022-11-15T08:01:30;100666.91;;;10.09;100.00
29909;BME280;36247;51.952;6.146;2022-11-15T08:04:14;100660.72;;;10.06;100.00
29909;BME280;36247;51.952;6.146;2022-11-15T08:06:58;100660.75;;;10.10;100.00
29909;BME280;36247;51.952;6.146;2022-11-15T08:09:42;100660.72;;;10.06;100.00
29909;BME280;36247;51.952;6.146;2022-11-15T08:12:27;100660.72;;;10.06;100.00
29909;BME280;36247;51.952;6.146;2022-11-15T08:15:12;100659.00;;;10.12;100.00
29909;BME280;36247;51.952;6.146;2022-11-15T08:17:58;100663.41;;;10.11;100.00
29909;BME280;36247;51.952;6.146;2022-11-15T08:20:43;100658.09;;;10.08;100.00
29909;BME280;36247;51.952;6.146;2022-11-15T08:23:27;100663.38;;;10.06;100.00
29909;BME280;36247;51.952;6.146;2022-11-15T08:26:12;100659.81;;;10.06;100.00
29909;BME280;36247;51.952;6.146;2022-11-15T08:28:55;100657.16;;;10.07;100.00
29909;BME280;36247;51.952;6.146;2022-11-15T08:31:39;100651.06;;;10.12;100.00
29909;BME280;36247;51.952;6.146;2022-11-15T08:34:23;100651.06;;;10.13;100.00
29909;BME280;36247;51.952;6.146;2022-11-15T08:37:07;100649.31;;;10.12;100.00
29909;BME280;36247;51.952;6.146;2022-11-15T08:39:51;100645.81;;;10.16;100.00
29909;BME280;36247;51.952;6.146;2022-11-15T08:42:36;100641.44;;;10.18;100.00
29909;BME280;36247;51.952;6.146;2022-11-15T08:45:20;100641.50;;;10.23;100.00
29909;BME280;36247;51.952;6.146;2022-11-15T08:48:04;100639.75;;;10.25;100.00
29909;BME280;36247;51.952;6.146;2022-11-15T08:50:53;100631.97;;;10.37;100.00
29909;BME280;36247;51.952;6.146;2022-11-15T08:53:38;100631.25;;;10.51;100.00
29909;BME280;36247;51.952;6.146;2022-11-15T08:56:23;100637.50;;;10.57;100.00
29909;BME280;36247;51.952;6.146;2022-11-15T08:59:07;100636.72;;;10.66;100.00
29909;BME280;36247;51.952;6.146;2022-11-15T09:01:51;100640.28;;;10.71;100.00
29909;BME280;36247;51.952;6.146;2022-11-15T09:04:35;100637.66;;;10.73;100.00
29909;BME280;36247;51.952;6.146;2022-11-15T09:07:19;100635.91;;;10.72;100.00
29909;BME280;36247;51.952;6.146;2022-11-15T09:10:03;100640.41;;;10.84;100.00
29909;BME280;36247;51.952;6.146;2022-11-15T09:12:48;100638.63;;;10.80;100.00
29909;BME280;36247;51.952;6.146;2022-11-15T09:15:32;100633.25;;;10.72;100.00
29909;BME280;36247;51.952;6.146;2022-11-15T09:18:16;100627.84;;;10.64;100.00
29909;BME280;36247;51.952;6.146;2022-11-15T09:21:00;100624.34;;;10.67;100.00
29909;BME280;36247;51.952;6.146;2022-11-15T09:23:46;100627.78;;;10.58;100.00
29909;BME280;36247;51.952;6.146;2022-11-15T09:26:30;100633.16;;;10.66;100.00
29909;BME280;36247;51.952;6.146;2022-11-15T09:29:14;100627.84;;;10.64;100.00
29909;BME280;36247;51.952;6.146;2022-11-15T09:31:58;100626.22;;;10.79;100.00
29909;BME280;36247;51.952;6.146;2022-11-15T09:34:42;100623.53;;;10.74;100.00
29909;BME280;36247;51.952;6.146;2022-11-15T09:37:26;100617.25;;;10.66;100.00
29909;BME280;36247;51.952;6.146;2022-11-15T09:40:11;100620.00;;;10.73;100.00
29909;BME280;36247;51.952;6.146;2022-11-15T09:46:42;100603.31;;;10.84;100.00
29909;BME280;36247;51.952;6.146;2022-11-15T09:49:29;100603.38;;;10.91;100.00
29909;BME280;36247;51.952;6.146;2022-11-15T09:52:19;100598.16;;;10.99;100.00
29909;BME280;36247;51.952;6.146;2022-11-15T09:54:50;100599.75;;;10.82;100.00
29909;BME280;36247;51.952;6.146;2022-11-15T10:02:51;100585.78;;;11.03;100.00
29909;BME280;36247;51.952;6.146;2022-11-15T10:05:23;100579.78;;;11.25;100.00
29909;BME280;36247;51.952;6.146;2022-11-15T10:10:46;100572.38;;;12.41;100.00
29909;BME280;36247;51.952;6.146;2022-11-15T10:13:24;100564.41;;;13.25;100.00
29909;BME280;36247;51.952;6.146;2022-11-15T10:15:51;100548.03;;;14.33;100.00
29909;BME280;36247;51.952;6.146;2022-11-15T10:18:34;100558.50;;;14.67;100.00
29909;BME280;36247;51.952;6.146;2022-11-15T10:21:17;100548.94;;;14.27;100.00
29909;BME280;36247;51.952;6.146;2022-11-15T10:23:44;100557.16;;;13.84;100.00
29909;BME280;36247;51.952;6.146;2022-11-15T10:26:16;100560.88;;;13.29;100.00
29909;BME280;36247;51.952;6.146;2022-11-15T10:28:42;100537.38;;;14.34;100.00
29909;BME280;36247;51.952;6.146;2022-11-15T10:31:23;100539.47;;;15.08;100.00
29909;BME280;36247;51.952;6.146;2022-11-15T10:33:49;100543.09;;;13.48;100.00
29909;BME280;36247;51.952;6.146;2022-11-15T10:36:16;100543.09;;;13.46;100.00
29909;BME280;36247;51.952;6.146;2022-11-15T10:41:16;100543.16;;;12.95;100.00
29909;BME280;36247;51.952;6.146;2022-11-15T10:43:42;100549.38;;;12.71;100.00
29909;BME280;36247;51.952;6.146;2022-11-15T10:46:20;100544.03;;;12.86;100.00
29909;BME280;36247;51.952;6.146;2022-11-15T10:48:46;100547.59;;;12.73;100.00
29909;BME280;36247;51.952;6.146;2022-11-15T10:51:24;100550.25;;;12.58;100.00
29909;BME280;36247;51.952;6.146;2022-11-15T10:53:56;100536.03;;;13.47;100.00
29909;BME280;36247;51.952;6.146;2022-11-15T10:56:25;100523.31;;;14.07;100.00
29909;BME280;36247;51.952;6.146;2022-11-15T10:58:54;100518.22;;;13.56;100.00
29909;BME280;36247;51.952;6.146;2022-11-15T11:01:25;100507.84;;;14.68;100.00
29909;BME280;36247;51.952;6.146;2022-11-15T11:04:06;100505.53;;;15.26;100.00
29909;BME280;36247;51.952;6.146;2022-11-15T11:06:50;100488.63;;;15.24;100.00
29909;BME280;36247;51.952;6.146;2022-11-15T11:09:34;100488.31;;;15.51;100.00
29909;BME280;36247;51.952;6.146;2022-11-15T11:12:03;100483.69;;;15.67;100.00
29909;BME280;36247;51.952;6.146;2022-11-15T11:14:37;100493.19;;;15.92;100.00
29909;BME280;36247;51.952;6.146;2022-11-15T11:22:42;100495.34;;;14.73;100.00
29909;BME280;36247;51.952;6.146;2022-11-15T11:25:22;100497.88;;;14.89;100.00
29909;BME280;36247;51.952;6.146;2022-11-15T11:28:10;100486.28;;;15.72;100.00
29909;BME280;36247;51.952;6.146;2022-11-15T11:30:52;100485.81;;;15.34;100.00
29909;BME280;36247;51.952;6.146;2022-11-15T11:47:48;100463.13;;;17.36;100.00
29909;BME280;36247;51.952;6.146;2022-11-15T11:50:21;100474.63;;;15.78;100.00
29909;BME280;36247;51.952;6.146;2022-11-15T11:53:28;100480.84;;;16.42;100.00
29909;BME280;36247;51.952;6.146;2022-11-15T11:56:03;100475.31;;;15.94;100.00
29909;BME280;36247;51.952;6.146;2022-11-15T11:58:34;100473.63;;;15.12;100.00
29909;BME280;36247;51.952;6.146;2022-11-15T12:01:10;100469.81;;;15.38;100.00
29909;BME280;36247;51.952;6.146;2022-11-15T12:06:20;100474.31;;;14.35;100.00
29909;BME280;36247;51.952;6.146;2022-11-15T12:08:52;100468.28;;;14.09;100.00
29909;BME280;36247;51.952;6.146;2022-11-15T12:14:24;100464.06;;;13.68;100.00
29909;BME280;36247;51.952;6.146;2022-11-15T12:16:51;100470.16;;;13.90;100.00
29909;BME280;36247;51.952;6.146;2022-11-15T12:19:17;100454.16;;;13.92;100.00
29909;BME280;36247;51.952;6.146;2022-11-15T12:21:48;100436.09;;;14.36;100.00
29909;BME280;36247;51.952;6.146;2022-11-15T12:24:42;100429.88;;;14.35;100.00
29909;BME280;36247;51.952;6.146;2022-11-15T12:29:57;100422.84;;;14.26;100.00
29909;BME280;36247;51.952;6.146;2022-11-15T12:32:30;100415.59;;;14.44;100.00
29909;BME280;36247;51.952;6.146;2022-11-15T12:34:57;100408.38;;;14.55;100.00
29909;BME280;36247;51.952;6.146;2022-11-15T12:43:44;100398.84;;;14.29;100.00
29909;BME280;36247;51.952;6.146;2022-11-15T12:45:51;100383.44;;;14.64;100.00
29909;BME280;36247;51.952;6.146;2022-11-15T13:01:07;100354.00;;;14.73;100.00
29909;BME280;36247;51.952;6.146;2022-11-15T13:03:32;100345.03;;;14.82;100.00
29909;BME280;36247;51.952;6.146;2022-11-15T13:06:00;100341.84;;;14.46;100.00
29909;BME280;36247;51.952;6.146;2022-11-15T13:08:41;100337.50;;;14.34;100.00
29909;BME280;36247;51.952;6.146;2022-11-15T13:12:47;100339.03;;;14.58;100.00
29909;BME280;36247;51.952;6.146;2022-11-15T13:28:32;100316.72;;;14.72;100.00
29909;BME280;36247;51.952;6.146;2022-11-15T13:30:56;100314.53;;;15.05;100.00
29909;BME280;36247;51.952;6.146;2022-11-15T13:33:32;100307.44;;;15.05;100.00
29909;BME280;36247;51.952;6.146;2022-11-15T13:36:02;100305.44;;;14.43;100.00
29909;BME280;36247;51.952;6.146;2022-11-15T13:38:33;100298.00;;;14.75;100.00
29909;BME280;36247;51.952;6.146;2022-11-15T13:41:16;100292.22;;;14.34;100.00
29909;BME280;36247;51.952;6.146;2022-11-15T13:43:42;100295.34;;;14.78;100.00
29909;BME280;36247;51.952;6.146;2022-11-15T13:46:13;100295.56;;;14.53;100.00
29909;BME280;36247;51.952;6.146;2022-11-15T13:48:42;100296.47;;;14.52;100.00
29909;BME280;36247;51.952;6.146;2022-11-15T13:51:22;100292.84;;;14.61;100.00
29909;BME280;36247;51.952;6.146;2022-11-15T13:53:54;100291.72;;;14.80;100.00
29909;BME280;36247;51.952;6.146;2022-11-15T13:56:21;100286.09;;;14.26;100.00
29909;BME280;36247;51.952;6.146;2022-11-15T13:58:47;100284.66;;;13.88;100.00
29909;BME280;36247;51.952;6.146;2022-11-15T14:01:18;100282.84;;;13.95;100.00
29909;BME280;36247;51.952;6.146;2022-11-15T14:03:51;100287.53;;;13.63;100.00
29909;BME280;36247;51.952;6.146;2022-11-15T14:06:19;100276.97;;;13.51;100.00
29909;BME280;36247;51.952;6.146;2022-11-15T14:11:55;100268.69;;;13.86;100.00
29909;BME280;36247;51.952;6.146;2022-11-15T14:14:23;100271.38;;;13.83;100.00
29909;BME280;36247;51.952;6.146;2022-11-15T14:16:57;100274.25;;;13.62;100.00
29909;BME280;36247;51.952;6.146;2022-11-15T14:22:18;100265.75;;;12.96;100.00
29909;BME280;36247;51.952;6.146;2022-11-15T14:25:03;100253.47;;;12.72;100.00
29909;BME280;36247;51.952;6.146;2022-11-15T14:27:31;100252.66;;;12.55;100.00
29909;BME280;36247;51.952;6.146;2022-11-15T14:29:57;100246.47;;;12.40;100.00
29909;BME280;36247;51.952;6.146;2022-11-15T14:32:24;100243.84;;;12.32;100.00
29909;BME280;36247;51.952;6.146;2022-11-15T14:34:56;100237.69;;;12.16;100.00
29909;BME280;36247;51.952;6.146;2022-11-15T14:37:26;100239.50;;;12.05;100.00
29909;BME280;36247;51.952;6.146;2022-11-15T14:39:53;100226.22;;;12.04;100.00
29909;BME280;36247;51.952;6.146;2022-11-15T14:42:19;100232.41;;;11.90;100.00
29909;BME280;36247;51.952;6.146;2022-11-15T14:44:45;100225.34;;;11.88;100.00
29909;BME280;36247;51.952;6.146;2022-11-15T14:47:11;100212.06;;;11.83;100.00
29909;BME280;36247;51.952;6.146;2022-11-15T14:49:36;100214.72;;;11.85;100.00
29909;BME280;36247;51.952;6.146;2022-11-15T14:52:01;100217.38;;;11.78;100.00
29909;BME280;36247;51.952;6.146;2022-11-15T14:54:27;100214.72;;;11.77;100.00
29909;BME280;36247;51.952;6.146;2022-11-15T14:56:52;100210.31;;;11.74;100.00
29909;BME280;36247;51.952;6.146;2022-11-15T14:59:18;100197.06;;;11.68;100.00
29909;BME280;36247;51.952;6.146;2022-11-15T15:01:44;100183.78;;;11.70;100.00
29909;BME280;36247;51.952;6.146;2022-11-15T15:04:10;100192.63;;;11.69;100.00
29909;BME280;36247;51.952;6.146;2022-11-15T15:06:36;100190.84;;;11.74;100.00
29909;BME280;36247;51.952;6.146;2022-11-15T15:09:02;100180.25;;;11.68;100.00
29909;BME280;36247;51.952;6.146;2022-11-15T15:11:31;100186.44;;;11.67;100.00
29909;BME280;36247;51.952;6.146;2022-11-15T15:13:57;100180.25;;;11.63;100.00
29909;BME280;36247;51.952;6.146;2022-11-15T15:16:25;100170.53;;;11.65;100.00
29909;BME280;36247;51.952;6.146;2022-11-15T15:18:51;100165.22;;;11.68;100.00
29909;BME280;36247;51.952;6.146;2022-11-15T15:21:24;100159.91;;;11.63;100.00
29909;BME280;36247;51.952;6.146;2022-11-15T15:23:51;100141.34;;;11.63;100.00
29909;BME280;36247;51.952;6.146;2022-11-15T15:26:17;100143.13;;;11.63;100.00
29909;BME280;36247;51.952;6.146;2022-11-15T15:28:42;100144.88;;;11.65;100.00
29909;BME280;36247;51.952;6.146;2022-11-15T15:31:09;100146.66;;;11.65;100.00
29909;BME280;36247;51.952;6.146;2022-11-15T15:33:35;100142.22;;;11.56;100.00
29909;BME280;36247;51.952;6.146;2022-11-15T15:36:03;100121.00;;;11.62;100.00
29909;BME280;36247;51.952;6.146;2022-11-15T15:38:29;100128.06;;;11.65;100.00
29909;BME280;36247;51.952;6.146;2022-11-15T15:40:54;100115.69;;;11.62;100.00
29909;BME280;36247;51.952;6.146;2022-11-15T15:43:20;100111.28;;;11.66;100.00
29909;BME280;36247;51.952;6.146;2022-11-15T15:45:46;100107.72;;;11.67;100.00